sensor_id;sensor_type;location;lat;lon;timestamp;P1;durP1;ratioP1;P2;durP2;ratioP2
65189;SDS011;51777;53.570;9.984;2023-06-01T00:02:22;18.77;;;6.43;;
65189;SDS011;51777;53.570;9.984;2023-06-01T00:04:48;12.38;;;6.63;;
65189;SDS011;51777;53.570;9.984;2023-06-01T00:07:15;13.65;;;7.05;;
65189;SDS011;51777;53.570;9.984;2023-06-01T00:09:41;16.77;;;7.22;;
65189;SDS011;51777;53.570;9.984;2023-06-01T00:12:06;14.82;;;6.72;;
65189;SDS011;51777;53.570;9.984;2023-06-01T00:14:34;15.05;;;6.05;;
65189;SDS011;51777;53.570;9.984;2023-06-01T00:17:00;17.40;;;6.07;;
65189;SDS011;51777;53.570;9.984;2023-06-01T00:19:25;12.65;;;5.50;;
65189;SDS011;51777;53.570;9.984;2023-06-01T00:21:52;14.32;;;5.85;;
65189;SDS011;51777;53.570;9.984;2023-06-01T00:24:19;14.35;;;5.80;;
65189;SDS011;51777;53.570;9.984;2023-06-01T00:26:45;15.02;;;5.50;;
65189;SDS011;51777;53.570;9.984;2023-06-01T00:29:11;15.35;;;4.95;;
65189;SDS011;51777;53.570;9.984;2023-06-01T00:31:37;16.42;;;5.53;;
65189;SDS011;51777;53.570;9.984;2023-06-01T00:34:03;16.25;;;5.43;;
65189;SDS011;51777;53.570;9.984;2023-06-01T00:36:28;11.70;;;5.20;;
65189;SDS011;51777;53.570;9.984;2023-06-01T00:38:53;12.30;;;5.03;;
65189;SDS011;51777;53.570;9.984;2023-06-01T00:41:26;12.38;;;4.75;;
65189;SDS011;51777;53.570;9.984;2023-06-01T00:43:52;13.60;;;4.80;;
65189;SDS011;51777;53.570;9.984;2023-06-01T00:46:17;18.85;;;5.07;;
65189;SDS011;51777;53.570;9.984;2023-06-01T00:48:43;13.07;;;5.15;;
65189;SDS011;51777;53.570;9.984;2023-06-01T00:51:08;13.13;;;4.80;;
65189;SDS011;51777;53.570;9.984;2023-06-01T00:53:34;13.50;;;4.88;;
65189;SDS011;51777;53.570;9.984;2023-06-01T00:55:59;12.05;;;4.70;;
65189;SDS011;51777;53.570;9.984;2023-06-01T00:58:25;12.75;;;4.90;;
65189;SDS011;51777;53.570;9.984;2023-06-01T01:00:50;12.57;;;4.88;;
65189;SDS011;51777;53.570;9.984;2023-06-01T01:03:20;10.52;;;4.53;;
65189;SDS011;51777;53.570;9.984;2023-06-01T01:05:46;16.27;;;5.03;;
65189;SDS011;51777;53.570;9.984;2023-06-01T01:11:04;10.73;;;4.20;;
65189;SDS011;51777;53.570;9.984;2023-06-01T01:16:10;8.95;;;4.00;;
65189;SDS011;51777;53.570;9.984;2023-06-01T01:18:43;13.35;;;4.03;;
65189;SDS011;51777;53.570;9.984;2023-06-01T01:21:19;9.65;;;3.42;;
65189;SDS011;51777;53.570;9.984;2023-06-01T01:29:34;10.32;;;3.80;;
65189;SDS011;51777;53.570;9.984;2023-06-01T01:32:01;10.88;;;3.17;;
65189;SDS011;51777;53.570;9.984;2023-06-01T01:34:29;11.25;;;3.60;;
65189;SDS011;51777;53.570;9.984;2023-06-01T01:36:56;11.32;;;3.50;;
65189;SDS011;51777;53.570;9.984;2023-06-01T01:39:21;12.20;;;3.65;;
65189;SDS011;51777;53.570;9.984;2023-06-01T01:41:47;10.90;;;3.72;;
65189;SDS011;51777;53.570;9.984;2023-06-01T01:44:12;10.85;;;3.95;;
65189;SDS011;51777;53.570;9.984;2023-06-01T01:49:09;17.23;;;4.32;;
65189;SDS011;51777;53.570;9.984;2023-06-01T01:54:04;16.10;;;3.85;;
65189;SDS011;51777;53.570;9.984;2023-06-01T01:56:32;11.60;;;3.90;;
65189;SDS011;51777;53.570;9.984;2023-06-01T01:59:01;13.48;;;3.97;;
65189;SDS011;51777;53.570;9.984;2023-06-01T02:01:27;12.02;;;3.30;;
65189;SDS011;51777;53.570;9.984;2023-06-01T02:04:00;9.90;;;3.28;;
65189;SDS011;51777;53.570;9.984;2023-06-01T02:06:32;10.63;;;3.60;;
65189;SDS011;51777;53.570;9.984;2023-06-01T02:08:58;15.07;;;4.05;;
65189;SDS011;51777;53.570;9.984;2023-06-01T02:11:23;13.82;;;4.00;;
65189;SDS011;51777;53.570;9.984;2023-06-01T02:13:49;11.52;;;3.58;;
65189;SDS011;51777;53.570;9.984;2023-06-01T02:16:15;12.43;;;3.42;;
65189;SDS011;51777;53.570;9.984;2023-06-01T02:18:42;13.45;;;3.80;;
65189;SDS011;51777;53.570;9.984;2023-06-01T02:21:14;12.35;;;3.63;;
65189;SDS011;51777;53.570;9.984;2023-06-01T02:23:39;9.32;;;3.80;;
65189;SDS011;51777;53.570;9.984;2023-06-01T02:26:06;18.60;;;3.70;;
65189;SDS011;51777;53.570;9.984;2023-06-01T02:28:33;10.23;;;3.47;;
65189;SDS011;51777;53.570;9.984;2023-06-01T02:31:04;14.18;;;3.65;;
65189;SDS011;51777;53.570;9.984;2023-06-01T02:33:30;10.07;;;3.20;;
65189;SDS011;51777;53.570;9.984;2023-06-01T02:35:56;13.68;;;3.58;;
65189;SDS011;51777;53.570;9.984;2023-06-01T02:38:21;13.07;;;3.70;;
65189;SDS011;51777;53.570;9.984;2023-06-01T02:40:47;14.75;;;3.95;;
65189;SDS011;51777;53.570;9.984;2023-06-01T02:43:12;14.73;;;3.95;;
65189;SDS011;51777;53.570;9.984;2023-06-01T02:45:37;10.50;;;3.20;;
65189;SDS011;51777;53.570;9.984;2023-06-01T02:48:03;16.05;;;4.38;;
65189;SDS011;51777;53.570;9.984;2023-06-01T02:50:29;12.82;;;3.72;;
65189;SDS011;51777;53.570;9.984;2023-06-01T02:52:54;17.63;;;3.97;;
65189;SDS011;51777;53.570;9.984;2023-06-01T02:55:20;17.90;;;3.33;;
65189;SDS011;51777;53.570;9.984;2023-06-01T02:57:45;14.27;;;3.78;;
65189;SDS011;51777;53.570;9.984;2023-06-01T03:00:11;14.55;;;3.90;;
65189;SDS011;51777;53.570;9.984;2023-06-01T03:02:47;16.45;;;3.92;;
65189;SDS011;51777;53.570;9.984;2023-06-01T03:05:13;12.48;;;4.78;;
65189;SDS011;51777;53.570;9.984;2023-06-01T03:07:42;9.50;;;3.65;;
65189;SDS011;51777;53.570;9.984;2023-06-01T03:10:09;14.20;;;4.10;;
65189;SDS011;51777;53.570;9.984;2023-06-01T03:12:35;13.82;;;3.42;;
65189;SDS011;51777;53.570;9.984;2023-06-01T03:15:01;15.95;;;4.07;;
65189;SDS011;51777;53.570;9.984;2023-06-01T03:17:26;15.75;;;3.75;;
65189;SDS011;51777;53.570;9.984;2023-06-01T03:19:52;12.35;;;3.08;;
65189;SDS011;51777;53.570;9.984;2023-06-01T03:22:17;14.57;;;3.40;;
65189;SDS011;51777;53.570;9.984;2023-06-01T03:24:43;17.08;;;3.78;;
65189;SDS011;51777;53.570;9.984;2023-06-01T03:27:09;12.52;;;3.42;;
65189;SDS011;51777;53.570;9.984;2023-06-01T03:29:36;16.50;;;3.88;;
65189;SDS011;51777;53.570;9.984;2023-06-01T03:32:01;11.82;;;3.35;;
65189;SDS011;51777;53.570;9.984;2023-06-01T03:34:27;21.48;;;3.83;;
65189;SDS011;51777;53.570;9.984;2023-06-01T03:36:53;15.82;;;3.45;;
65189;SDS011;51777;53.570;9.984;2023-06-01T03:39:19;17.38;;;3.65;;
65189;SDS011;51777;53.570;9.984;2023-06-01T03:41:44;12.52;;;3.75;;
65189;SDS011;51777;53.570;9.984;2023-06-01T03:44:10;9.88;;;3.22;;
65189;SDS011;51777;53.570;9.984;2023-06-01T03:46:36;13.50;;;3.72;;
65189;SDS011;51777;53.570;9.984;2023-06-01T03:49:02;15.32;;;4.20;;
65189;SDS011;51777;53.570;9.984;2023-06-01T03:51:29;10.45;;;3.22;;
65189;SDS011;51777;53.570;9.984;2023-06-01T03:53:55;12.07;;;3.38;;
65189;SDS011;51777;53.570;9.984;2023-06-01T03:56:20;17.88;;;3.63;;
65189;SDS011;51777;53.570;9.984;2023-06-01T03:58:46;14.45;;;3.50;;
65189;SDS011;51777;53.570;9.984;2023-06-01T04:01:11;9.30;;;3.33;;
65189;SDS011;51777;53.570;9.984;2023-06-01T04:03:42;11.60;;;3.92;;
65189;SDS011;51777;53.570;9.984;2023-06-01T04:06:08;19.02;;;3.65;;
65189;SDS011;51777;53.570;9.984;2023-06-01T04:08:37;13.32;;;3.80;;
65189;SDS011;51777;53.570;9.984;2023-06-01T04:11:12;11.98;;;3.50;;
65189;SDS011;51777;53.570;9.984;2023-06-01T04:13:38;14.38;;;3.22;;
65189;SDS011;51777;53.570;9.984;2023-06-01T04:16:04;11.02;;;3.78;;
65189;SDS011;51777;53.570;9.984;2023-06-01T04:18:29;11.75;;;3.45;;
65189;SDS011;51777;53.570;9.984;2023-06-01T04:20:55;11.50;;;3.63;;
65189;SDS011;51777;53.570;9.984;2023-06-01T04:23:21;12.10;;;3.38;;
65189;SDS011;51777;53.570;9.984;2023-06-01T04:25:47;14.38;;;3.72;;
65189;SDS011;51777;53.570;9.984;2023-06-01T04:28:16;13.65;;;3.90;;
65189;SDS011;51777;53.570;9.984;2023-06-01T04:30:42;11.85;;;4.05;;
65189;SDS011;51777;53.570;9.984;2023-06-01T04:33:09;17.45;;;4.10;;
65189;SDS011;51777;53.570;9.984;2023-06-01T04:35:35;14.23;;;4.15;;
65189;SDS011;51777;53.570;9.984;2023-06-01T04:38:02;13.50;;;3.80;;
65189;SDS011;51777;53.570;9.984;2023-06-01T04:40:27;11.68;;;4.10;;
65189;SDS011;51777;53.570;9.984;2023-06-01T04:42:53;15.57;;;4.25;;
65189;SDS011;51777;53.570;9.984;2023-06-01T04:45:21;15.07;;;4.45;;
65189;SDS011;51777;53.570;9.984;2023-06-01T04:47:48;14.27;;;4.20;;
65189;SDS011;51777;53.570;9.984;2023-06-01T04:50:15;11.30;;;3.28;;
65189;SDS011;51777;53.570;9.984;2023-06-01T04:52:41;14.73;;;3.85;;
65189;SDS011;51777;53.570;9.984;2023-06-01T04:55:11;13.82;;;3.72;;
65189;SDS011;51777;53.570;9.984;2023-06-01T04:57:40;13.60;;;3.70;;
65189;SDS011;51777;53.570;9.984;2023-06-01T05:00:08;19.27;;;4.15;;
65189;SDS011;51777;53.570;9.984;2023-06-01T05:02:36;12.20;;;3.80;;
65189;SDS011;51777;53.570;9.984;2023-06-01T05:05:02;15.35;;;4.25;;
65189;SDS011;51777;53.570;9.984;2023-06-01T05:07:29;14.63;;;4.00;;
65189;SDS011;51777;53.570;9.984;2023-06-01T05:09:55;13.27;;;3.67;;
65189;SDS011;51777;53.570;9.984;2023-06-01T05:12:20;8.63;;;3.30;;
65189;SDS011;51777;53.570;9.984;2023-06-01T05:14:45;10.45;;;3.17;;
65189;SDS011;51777;53.570;9.984;2023-06-01T05:17:11;16.52;;;4.28;;
65189;SDS011;51777;53.570;9.984;2023-06-01T05:19:36;24.17;;;4.97;;
65189;SDS011;51777;53.570;9.984;2023-06-01T05:22:02;15.65;;;4.93;;
65189;SDS011;51777;53.570;9.984;2023-06-01T05:24:27;41.55;;;4.95;;
65189;SDS011;51777;53.570;9.984;2023-06-01T05:26:52;18.92;;;4.13;;
65189;SDS011;51777;53.570;9.984;2023-06-01T05:29:18;15.98;;;3.90;;
65189;SDS011;51777;53.570;9.984;2023-06-01T05:31:45;17.80;;;3.95;;
65189;SDS011;51777;53.570;9.984;2023-06-01T05:34:11;19.08;;;4.25;;
65189;SDS011;51777;53.570;9.984;2023-06-01T05:36:37;15.00;;;3.97;;
65189;SDS011;51777;53.570;9.984;2023-06-01T05:39:02;10.77;;;3.20;;
65189;SDS011;51777;53.570;9.984;2023-06-01T05:41:27;19.08;;;4.47;;
65189;SDS011;51777;53.570;9.984;2023-06-01T05:43:53;28.75;;;4.32;;
65189;SDS011;51777;53.570;9.984;2023-06-01T05:46:18;15.73;;;3.85;;
65189;SDS011;51777;53.570;9.984;2023-06-01T05:48:45;15.98;;;3.72;;
65189;SDS011;51777;53.570;9.984;2023-06-01T05:51:11;13.52;;;3.55;;
65189;SDS011;51777;53.570;9.984;2023-06-01T05:53:36;10.20;;;3.05;;
65189;SDS011;51777;53.570;9.984;2023-06-01T05:56:01;18.08;;;3.30;;
65189;SDS011;51777;53.570;9.984;2023-06-01T05:58:27;18.10;;;3.13;;
65189;SDS011;51777;53.570;9.984;2023-06-01T06:00:53;12.80;;;2.80;;
65189;SDS011;51777;53.570;9.984;2023-06-01T06:03:18;12.52;;;2.92;;
65189;SDS011;51777;53.570;9.984;2023-06-01T06:05:43;12.02;;;3.00;;
65189;SDS011;51777;53.570;9.984;2023-06-01T06:08:10;13.13;;;2.97;;
65189;SDS011;51777;53.570;9.984;2023-06-01T06:10:35;13.75;;;3.00;;
65189;SDS011;51777;53.570;9.984;2023-06-01T06:13:01;12.60;;;2.92;;
65189;SDS011;51777;53.570;9.984;2023-06-01T06:15:26;13.48;;;3.53;;
65189;SDS011;51777;53.570;9.984;2023-06-01T06:17:52;15.73;;;3.53;;
65189;SDS011;51777;53.570;9.984;2023-06-01T06:20:17;19.23;;;3.88;;
65189;SDS011;51777;53.570;9.984;2023-06-01T06:22:48;16.92;;;3.38;;
65189;SDS011;51777;53.570;9.984;2023-06-01T06:25:15;14.38;;;3.85;;
65189;SDS011;51777;53.570;9.984;2023-06-01T06:27:40;14.45;;;3.20;;
65189;SDS011;51777;53.570;9.984;2023-06-01T06:30:05;15.45;;;3.72;;
65189;SDS011;51777;53.570;9.984;2023-06-01T06:32:31;12.00;;;3.20;;
65189;SDS011;51777;53.570;9.984;2023-06-01T06:34:57;12.15;;;3.00;;
65189;SDS011;51777;53.570;9.984;2023-06-01T06:37:22;17.00;;;3.25;;
65189;SDS011;51777;53.570;9.984;2023-06-01T06:39:48;11.63;;;3.85;;
65189;SDS011;51777;53.570;9.984;2023-06-01T06:42:13;13.50;;;3.45;;
65189;SDS011;51777;53.570;9.984;2023-06-01T06:44:38;11.27;;;3.47;;
65189;SDS011;51777;53.570;9.984;2023-06-01T06:47:04;18.50;;;3.10;;
65189;SDS011;51777;53.570;9.984;2023-06-01T06:49:30;12.98;;;3.05;;
65189;SDS011;51777;53.570;9.984;2023-06-01T06:51:55;11.90;;;3.00;;
65189;SDS011;51777;53.570;9.984;2023-06-01T06:54:21;14.10;;;3.22;;
65189;SDS011;51777;53.570;9.984;2023-06-01T06:56:46;11.05;;;3.03;;
65189;SDS011;51777;53.570;9.984;2023-06-01T06:59:12;13.30;;;3.17;;
65189;SDS011;51777;53.570;9.984;2023-06-01T07:01:38;14.73;;;3.13;;
65189;SDS011;51777;53.570;9.984;2023-06-01T07:04:04;13.68;;;3.47;;
65189;SDS011;51777;53.570;9.984;2023-06-01T07:06:32;15.82;;;3.22;;
65189;SDS011;51777;53.570;9.984;2023-06-01T07:08:58;14.73;;;3.10;;
65189;SDS011;51777;53.570;9.984;2023-06-01T07:11:24;8.00;;;2.38;;
65189;SDS011;51777;53.570;9.984;2023-06-01T07:13:54;20.17;;;3.28;;
65189;SDS011;51777;53.570;9.984;2023-06-01T07:16:22;11.65;;;2.75;;
65189;SDS011;51777;53.570;9.984;2023-06-01T07:18:48;9.20;;;3.20;;
65189;SDS011;51777;53.570;9.984;2023-06-01T07:21:13;9.15;;;2.90;;
65189;SDS011;51777;53.570;9.984;2023-06-01T07:23:41;9.00;;;2.42;;
65189;SDS011;51777;53.570;9.984;2023-06-01T07:26:07;14.48;;;3.00;;
65189;SDS011;51777;53.570;9.984;2023-06-01T07:28:32;10.65;;;2.75;;
65189;SDS011;51777;53.570;9.984;2023-06-01T07:30:57;11.57;;;2.50;;
65189;SDS011;51777;53.570;9.984;2023-06-01T07:33:23;9.50;;;2.58;;
65189;SDS011;51777;53.570;9.984;2023-06-01T07:35:50;15.55;;;3.20;;
65189;SDS011;51777;53.570;9.984;2023-06-01T07:38:18;7.35;;;2.63;;
65189;SDS011;51777;53.570;9.984;2023-06-01T07:40:45;14.88;;;3.15;;
65189;SDS011;51777;53.570;9.984;2023-06-01T07:43:10;14.57;;;3.40;;
65189;SDS011;51777;53.570;9.984;2023-06-01T07:45:36;13.18;;;2.88;;
65189;SDS011;51777;53.570;9.984;2023-06-01T07:48:01;15.27;;;3.13;;
65189;SDS011;51777;53.570;9.984;2023-06-01T07:50:27;10.57;;;2.97;;
65189;SDS011;51777;53.570;9.984;2023-06-01T07:52:56;14.93;;;3.67;;
65189;SDS011;51777;53.570;9.984;2023-06-01T07:55:22;10.00;;;2.70;;
65189;SDS011;51777;53.570;9.984;2023-06-01T07:57:48;15.82;;;2.80;;
65189;SDS011;51777;53.570;9.984;2023-06-01T08:00:14;9.55;;;2.83;;
65189;SDS011;51777;53.570;9.984;2023-06-01T08:02:42;12.43;;;3.05;;
65189;SDS011;51777;53.570;9.984;2023-06-01T08:05:08;18.63;;;3.33;;
65189;SDS011;51777;53.570;9.984;2023-06-01T08:07:35;12.48;;;3.15;;
65189;SDS011;51777;53.570;9.984;2023-06-01T08:10:03;9.75;;;2.25;;
65189;SDS011;51777;53.570;9.984;2023-06-01T08:12:32;12.80;;;2.78;;
65189;SDS011;51777;53.570;9.984;2023-06-01T08:14:58;8.23;;;2.58;;
65189;SDS011;51777;53.570;9.984;2023-06-01T08:17:24;9.82;;;2.42;;
65189;SDS011;51777;53.570;9.984;2023-06-01T08:19:50;8.70;;;2.13;;
65189;SDS011;51777;53.570;9.984;2023-06-01T08:22:19;17.48;;;2.90;;
65189;SDS011;51777;53.570;9.984;2023-06-01T08:24:45;11.30;;;2.95;;
65189;SDS011;51777;53.570;9.984;2023-06-01T08:27:16;13.70;;;2.63;;
65189;SDS011;51777;53.570;9.984;2023-06-01T08:29:45;9.75;;;2.60;;
65189;SDS011;51777;53.570;9.984;2023-06-01T08:32:12;7.85;;;2.40;;
65189;SDS011;51777;53.570;9.984;2023-06-01T08:34:38;19.13;;;2.70;;
65189;SDS011;51777;53.570;9.984;2023-06-01T08:37:03;10.40;;;2.50;;
65189;SDS011;51777;53.570;9.984;2023-06-01T08:39:29;14.68;;;3.10;;
65189;SDS011;51777;53.570;9.984;2023-06-01T08:44:59;7.82;;;2.58;;
65189;SDS011;51777;53.570;9.984;2023-06-01T08:47:29;15.82;;;3.33;;
65189;SDS011;51777;53.570;9.984;2023-06-01T08:49:55;12.90;;;2.80;;
65189;SDS011;51777;53.570;9.984;2023-06-01T08:52:24;13.38;;;3.03;;
65189;SDS011;51777;53.570;9.984;2023-06-01T08:54:53;12.90;;;2.70;;
65189;SDS011;51777;53.570;9.984;2023-06-01T08:57:19;14.05;;;2.42;;
65189;SDS011;51777;53.570;9.984;2023-06-01T08:59:45;8.85;;;2.17;;
65189;SDS011;51777;53.570;9.984;2023-06-01T09:02:11;15.63;;;2.65;;
65189;SDS011;51777;53.570;9.984;2023-06-01T09:04:36;9.65;;;2.70;;
65189;SDS011;51777;53.570;9.984;2023-06-01T09:07:07;10.55;;;2.45;;
65189;SDS011;51777;53.570;9.984;2023-06-01T09:09:33;10.02;;;2.10;;
65189;SDS011;51777;53.570;9.984;2023-06-01T09:14:48;10.30;;;2.33;;
65189;SDS011;51777;53.570;9.984;2023-06-01T09:17:14;8.75;;;2.38;;
65189;SDS011;51777;53.570;9.984;2023-06-01T09:19:43;10.40;;;3.13;;
65189;SDS011;51777;53.570;9.984;2023-06-01T09:22:09;7.97;;;2.15;;
65189;SDS011;51777;53.570;9.984;2023-06-01T09:24:37;14.70;;;2.50;;
65189;SDS011;51777;53.570;9.984;2023-06-01T09:27:02;16.75;;;2.83;;
65189;SDS011;51777;53.570;9.984;2023-06-01T09:29:29;11.27;;;2.75;;
65189;SDS011;51777;53.570;9.984;2023-06-01T09:31:54;10.57;;;2.45;;
65189;SDS011;51777;53.570;9.984;2023-06-01T09:34:20;6.40;;;2.00;;
65189;SDS011;51777;53.570;9.984;2023-06-01T09:36:47;12.18;;;2.70;;
65189;SDS011;51777;53.570;9.984;2023-06-01T09:39:17;14.02;;;2.70;;
65189;SDS011;51777;53.570;9.984;2023-06-01T09:41:46;11.75;;;2.30;;
65189;SDS011;51777;53.570;9.984;2023-06-01T09:44:13;8.50;;;2.10;;
65189;SDS011;51777;53.570;9.984;2023-06-01T09:46:46;11.68;;;2.60;;
65189;SDS011;51777;53.570;9.984;2023-06-01T09:49:17;10.43;;;2.95;;
65189;SDS011;51777;53.570;9.984;2023-06-01T09:51:45;13.55;;;3.17;;
65189;SDS011;51777;53.570;9.984;2023-06-01T09:54:20;6.95;;;2.10;;
65189;SDS011;51777;53.570;9.984;2023-06-01T09:56:50;16.00;;;2.97;;
65189;SDS011;51777;53.570;9.984;2023-06-01T09:59:16;8.30;;;2.28;;
65189;SDS011;51777;53.570;9.984;2023-06-01T10:01:42;12.05;;;2.75;;
65189;SDS011;51777;53.570;9.984;2023-06-01T10:04:08;10.52;;;2.30;;
65189;SDS011;51777;53.570;9.984;2023-06-01T10:06:38;8.75;;;2.40;;
65189;SDS011;51777;53.570;9.984;2023-06-01T10:12:29;11.38;;;2.80;;
65189;SDS011;51777;53.570;9.984;2023-06-01T10:17:38;10.63;;;2.17;;
65189;SDS011;51777;53.570;9.984;2023-06-01T10:20:07;12.27;;;2.55;;
65189;SDS011;51777;53.570;9.984;2023-06-01T10:22:38;13.50;;;2.65;;
65189;SDS011;51777;53.570;9.984;2023-06-01T10:25:06;6.95;;;2.13;;
65189;SDS011;51777;53.570;9.984;2023-06-01T10:27:36;9.82;;;2.40;;
65189;SDS011;51777;53.570;9.984;2023-06-01T10:30:07;12.15;;;2.42;;
65189;SDS011;51777;53.570;9.984;2023-06-01T10:35:03;9.50;;;2.35;;
65189;SDS011;51777;53.570;9.984;2023-06-01T10:37:28;15.60;;;2.38;;
65189;SDS011;51777;53.570;9.984;2023-06-01T10:40:09;10.07;;;2.40;;
65189;SDS011;51777;53.570;9.984;2023-06-01T10:42:39;16.45;;;2.65;;
65189;SDS011;51777;53.570;9.984;2023-06-01T10:45:05;8.43;;;2.20;;
65189;SDS011;51777;53.570;9.984;2023-06-01T10:54:54;9.88;;;2.53;;
65189;SDS011;51777;53.570;9.984;2023-06-01T10:57:26;10.10;;;2.30;;
65189;SDS011;51777;53.570;9.984;2023-06-01T11:02:59;7.47;;;2.03;;
65189;SDS011;51777;53.570;9.984;2023-06-01T11:11:09;20.67;;;2.85;;
65189;SDS011;51777;53.570;9.984;2023-06-01T11:13:35;10.85;;;2.13;;
65189;SDS011;51777;53.570;9.984;2023-06-01T11:18:44;9.60;;;2.17;;
65189;SDS011;51777;53.570;9.984;2023-06-01T11:21:36;7.00;;;1.88;;
65189;SDS011;51777;53.570;9.984;2023-06-01T11:24:19;13.27;;;2.90;;
65189;SDS011;51777;53.570;9.984;2023-06-01T11:26:46;11.85;;;2.13;;
65189;SDS011;51777;53.570;9.984;2023-06-01T11:29:19;11.57;;;2.65;;
65189;SDS011;51777;53.570;9.984;2023-06-01T11:31:53;14.02;;;2.28;;
65189;SDS011;51777;53.570;9.984;2023-06-01T11:34:30;9.95;;;2.30;;
65189;SDS011;51777;53.570;9.984;2023-06-01T11:37:02;10.98;;;2.33;;
65189;SDS011;51777;53.570;9.984;2023-06-01T11:39:29;6.82;;;2.10;;
65189;SDS011;51777;53.570;9.984;2023-06-01T11:44:35;7.75;;;1.90;;
65189;SDS011;51777;53.570;9.984;2023-06-01T11:47:03;7.60;;;1.63;;
65189;SDS011;51777;53.570;9.984;2023-06-01T11:49:30;5.00;;;1.70;;
65189;SDS011;51777;53.570;9.984;2023-06-01T11:51:56;6.43;;;1.60;;
65189;SDS011;51777;53.570;9.984;2023-06-01T11:54:23;7.97;;;1.85;;
65189;SDS011;51777;53.570;9.984;2023-06-01T11:56:51;12.80;;;2.17;;
65189;SDS011;51777;53.570;9.984;2023-06-01T11:59:17;7.15;;;2.30;;
65189;SDS011;51777;53.570;9.984;2023-06-01T12:01:43;10.73;;;2.20;;
65189;SDS011;51777;53.570;9.984;2023-06-01T12:04:14;8.48;;;1.98;;
65189;SDS011;51777;53.570;9.984;2023-06-01T12:06:40;10.75;;;2.03;;
65189;SDS011;51777;53.570;9.984;2023-06-01T12:09:05;9.15;;;1.98;;
65189;SDS011;51777;53.570;9.984;2023-06-01T12:11:32;8.15;;;1.80;;
65189;SDS011;51777;53.570;9.984;2023-06-01T12:13:59;8.10;;;1.63;;
65189;SDS011;51777;53.570;9.984;2023-06-01T12:16:24;10.52;;;1.40;;
65189;SDS011;51777;53.570;9.984;2023-06-01T12:19:13;11.38;;;2.10;;
65189;SDS011;51777;53.570;9.984;2023-06-01T12:21:39;12.60;;;2.33;;
65189;SDS011;51777;53.570;9.984;2023-06-01T12:24:05;13.43;;;1.85;;
65189;SDS011;51777;53.570;9.984;2023-06-01T12:26:36;12.85;;;1.70;;
65189;SDS011;51777;53.570;9.984;2023-06-01T12:29:02;9.13;;;2.13;;
65189;SDS011;51777;53.570;9.984;2023-06-01T12:31:28;6.45;;;1.80;;
65189;SDS011;51777;53.570;9.984;2023-06-01T12:33:54;11.23;;;1.90;;
65189;SDS011;51777;53.570;9.984;2023-06-01T12:38:59;8.43;;;1.55;;
65189;SDS011;51777;53.570;9.984;2023-06-01T12:41:26;11.10;;;1.70;;
65189;SDS011;51777;53.570;9.984;2023-06-01T12:43:52;10.05;;;2.25;;
65189;SDS011;51777;53.570;9.984;2023-06-01T12:48:48;14.10;;;2.40;;
65189;SDS011;51777;53.570;9.984;2023-06-01T12:51:15;20.55;;;2.33;;
65189;SDS011;51777;53.570;9.984;2023-06-01T12:53:41;7.80;;;1.73;;
65189;SDS011;51777;53.570;9.984;2023-06-01T12:56:11;14.65;;;1.95;;
65189;SDS011;51777;53.570;9.984;2023-06-01T12:58:37;11.25;;;1.80;;
65189;SDS011;51777;53.570;9.984;2023-06-01T13:01:03;8.25;;;1.65;;
65189;SDS011;51777;53.570;9.984;2023-06-01T13:03:30;14.73;;;1.60;;
65189;SDS011;51777;53.570;9.984;2023-06-01T13:05:56;9.38;;;2.13;;
65189;SDS011;51777;53.570;9.984;2023-06-01T13:08:22;11.25;;;2.15;;
65189;SDS011;51777;53.570;9.984;2023-06-01T13:10:48;10.98;;;1.60;;
65189;SDS011;51777;53.570;9.984;2023-06-01T13:13:14;13.45;;;1.90;;
65189;SDS011;51777;53.570;9.984;2023-06-01T13:15:40;10.43;;;2.38;;
65189;SDS011;51777;53.570;9.984;2023-06-01T13:18:06;9.50;;;2.20;;
65189;SDS011;51777;53.570;9.984;2023-06-01T13:20:32;9.93;;;2.40;;
65189;SDS011;51777;53.570;9.984;2023-06-01T13:22:57;13.77;;;2.13;;
65189;SDS011;51777;53.570;9.984;2023-06-01T13:25:23;16.33;;;2.33;;
65189;SDS011;51777;53.570;9.984;2023-06-01T13:27:49;12.18;;;2.20;;
65189;SDS011;51777;53.570;9.984;2023-06-01T13:30:15;11.07;;;1.95;;
65189;SDS011;51777;53.570;9.984;2023-06-01T13:32:42;10.77;;;1.90;;
65189;SDS011;51777;53.570;9.984;2023-06-01T13:35:07;9.52;;;1.90;;
65189;SDS011;51777;53.570;9.984;2023-06-01T13:37:33;10.73;;;1.92;;
65189;SDS011;51777;53.570;9.984;2023-06-01T13:40:01;9.10;;;2.10;;
65189;SDS011;51777;53.570;9.984;2023-06-01T13:42:27;14.05;;;2.03;;
65189;SDS011;51777;53.570;9.984;2023-06-01T13:44:53;12.48;;;2.20;;
65189;SDS011;51777;53.570;9.984;2023-06-01T13:47:20;12.73;;;2.65;;
65189;SDS011;51777;53.570;9.984;2023-06-01T13:49:45;13.60;;;1.88;;
65189;SDS011;51777;53.570;9.984;2023-06-01T13:52:11;12.10;;;2.08;;
65189;SDS011;51777;53.570;9.984;2023-06-01T13:54:37;16.35;;;2.30;;
65189;SDS011;51777;53.570;9.984;2023-06-01T13:57:03;18.30;;;2.47;;
65189;SDS011;51777;53.570;9.984;2023-06-01T13:59:33;13.52;;;2.92;;
65189;SDS011;51777;53.570;9.984;2023-06-01T14:02:01;12.45;;;2.15;;
65189;SDS011;51777;53.570;9.984;2023-06-01T14:04:28;13.70;;;2.10;;
65189;SDS011;51777;53.570;9.984;2023-06-01T14:06:56;9.45;;;1.88;;
65189;SDS011;51777;53.570;9.984;2023-06-01T14:09:22;10.05;;;1.55;;
65189;SDS011;51777;53.570;9.984;2023-06-01T14:11:48;21.73;;;2.17;;
65189;SDS011;51777;53.570;9.984;2023-06-01T14:14:14;15.55;;;2.30;;
65189;SDS011;51777;53.570;9.984;2023-06-01T14:16:39;13.85;;;2.00;;
65189;SDS011;51777;53.570;9.984;2023-06-01T14:19:05;12.85;;;1.80;;
65189;SDS011;51777;53.570;9.984;2023-06-01T14:21:30;14.50;;;1.90;;
65189;SDS011;51777;53.570;9.984;2023-06-01T14:23:57;16.70;;;2.45;;
65189;SDS011;51777;53.570;9.984;2023-06-01T14:26:22;14.27;;;2.28;;
65189;SDS011;51777;53.570;9.984;2023-06-01T14:28:48;23.13;;;2.20;;
65189;SDS011;51777;53.570;9.984;2023-06-01T14:31:15;12.50;;;2.00;;
65189;SDS011;51777;53.570;9.984;2023-06-01T14:34:03;11.45;;;2.25;;
65189;SDS011;51777;53.570;9.984;2023-06-01T14:36:29;11.80;;;2.00;;
65189;SDS011;51777;53.570;9.984;2023-06-01T14:38:55;11.65;;;2.15;;
65189;SDS011;51777;53.570;9.984;2023-06-01T14:41:20;14.88;;;2.28;;
65189;SDS011;51777;53.570;9.984;2023-06-01T14:43:46;22.35;;;2.65;;
65189;SDS011;51777;53.570;9.984;2023-06-01T14:46:14;17.30;;;3.08;;
65189;SDS011;51777;53.570;9.984;2023-06-01T14:48:41;22.00;;;2.45;;
65189;SDS011;51777;53.570;9.984;2023-06-01T14:51:07;15.93;;;2.45;;
65189;SDS011;51777;53.570;9.984;2023-06-01T14:53:32;21.08;;;2.40;;
65189;SDS011;51777;53.570;9.984;2023-06-01T14:55:57;21.48;;;2.45;;
65189;SDS011;51777;53.570;9.984;2023-06-01T14:58:23;21.75;;;2.95;;
65189;SDS011;51777;53.570;9.984;2023-06-01T15:00:48;19.33;;;2.50;;
65189;SDS011;51777;53.570;9.984;2023-06-01T15:03:14;18.02;;;2.72;;
65189;SDS011;51777;53.570;9.984;2023-06-01T15:05:40;13.55;;;2.47;;
65189;SDS011;51777;53.570;9.984;2023-06-01T15:08:05;17.88;;;2.70;;
65189;SDS011;51777;53.570;9.984;2023-06-01T15:10:31;18.52;;;2.55;;
65189;SDS011;51777;53.570;9.984;2023-06-01T15:12:57;12.07;;;2.15;;
65189;SDS011;51777;53.570;9.984;2023-06-01T15:15:22;25.48;;;2.83;;
65189;SDS011;51777;53.570;9.984;2023-06-01T15:17:48;30.25;;;3.58;;
65189;SDS011;51777;53.570;9.984;2023-06-01T15:20:13;19.73;;;2.70;;
65189;SDS011;51777;53.570;9.984;2023-06-01T15:22:39;24.88;;;3.38;;
65189;SDS011;51777;53.570;9.984;2023-06-01T15:25:04;16.35;;;2.45;;
65189;SDS011;51777;53.570;9.984;2023-06-01T15:27:30;19.70;;;2.42;;
65189;SDS011;51777;53.570;9.984;2023-06-01T15:29:56;17.88;;;2.92;;
65189;SDS011;51777;53.570;9.984;2023-06-01T15:32:21;19.38;;;2.72;;